WetterOnline ( http://www.wetteronline.de )

Wetter aktuell Lübeck

Aktuelles Wetter: Lübeck/Blankensee (15m)

6-stündlich | Neueste Meldungen
Ortszeit Temperatur Wetter
So, 23.09. 2:00 9.6° C bewölkt
Sa, 22.09. 20:00 11.9° C bewölkt
Sa, 22.09. 14:00 15.3° C bedeckt
Sa, 22.09. 8:00 10.1° C bewölkt
Sa, 22.09. 2:00 9.6° C wolkenlos
Fr, 21.09. 20:00 12.7° C leicht bewölkt
Fr, 21.09. 14:00 -° C Regen
Fr, 21.09. 8:00 18.6° C bewölkt
Ortszeit Temperatur Wetter
So, 23.09. 4:30 8.8° C wolkig
So, 23.09. 4:20 8.8° C wolkig
So, 23.09. 4:10 8.8° C bewölkt
So, 23.09. 4:00 8.9° C bedeckt
So, 23.09. 3:50 8.9° C bedeckt
So, 23.09. 3:40 9.1° C bewölkt
So, 23.09. 3:30 8.8° C wolkig
So, 23.09. 3:00 8.8° C fast wolkenlos
So, 23.09. 2:30 9.2° C leicht bewölkt
So, 23.09. 2:00 9.6° C bewölkt
So, 23.09. 1:30 9.7° C bewölkt
Ortszeit Relative Feuchte Sichtweite
So, 23.09. 2:00 93% 11 km
Sa, 22.09. 20:00 80% 35 km
Sa, 22.09. 14:00 60% 45 km
Sa, 22.09. 8:00 90% 30 km
Sa, 22.09. 2:00 80% 55 km
Fr, 21.09. 20:00 72% 40 km
Fr, 21.09. 14:00 - 4.9 km
Fr, 21.09. 8:00 65% 23 km
Ortszeit Relative Feuchte Sichtweite
So, 23.09. 4:30 95% 10 km
So, 23.09. 4:20 95% -
So, 23.09. 4:10 94% -
So, 23.09. 4:00 95% 10 km
So, 23.09. 3:50 95% -
So, 23.09. 3:40 95% -
So, 23.09. 3:30 95% 9 km
So, 23.09. 3:00 95% 11 km
So, 23.09. 2:30 94% 11 km
So, 23.09. 2:00 93% 11 km
So, 23.09. 1:30 90% 17 km
Ortszeit Niederschlagsmenge Niederschlagsart
So, 23.09. 2:00 0.3 l/m2 in 6 Std. Regen
Sa, 22.09. 20:00 1 l/m2 in 12 Std. Regen
Sa, 22.09. 14:00 0.2 l/m2 in 6 Std. Regen
Sa, 22.09. 8:00 0.1 l/m2 in 12 Std. Regen
Sa, 22.09. 2:00 0.1 l/m2 in 6 Std. Regen
Fr, 21.09. 20:00 5 l/m2 in 12 Std. Regen
Fr, 21.09. 14:00 0.9 l/m2 in 6 Std. Regen
Fr, 21.09. 8:00 0.0 l/m2 in 12 Std. -
Ortszeit Niederschlagsmenge Niederschlagsart
So, 23.09. 4:30 0.0 l/m2 in 1 Std. -
So, 23.09. 4:20 keine Meldung -
So, 23.09. 4:10 keine Meldung -
So, 23.09. 4:00 0.0 l/m2 in 1 Std. -
So, 23.09. 3:50 keine Meldung -
So, 23.09. 3:40 keine Meldung -
So, 23.09. 3:30 0.0 l/m2 in 1 Std. -
So, 23.09. 3:00 0.0 l/m2 in 1 Std. -
So, 23.09. 2:30 0.0 l/m2 in 1 Std. -
So, 23.09. 2:00 0.3 l/m2 in 1 Std. Regen
So, 23.09. 1:30 0.0 l/m2 in 1 Std. -
Ortszeit Stärke Spitze Richtung
km/h Bft. km/h Grad Sektor
So, 23.09. 2:00 7 2 25 200° S
Sa, 22.09. 20:00 6 1 63 210° SW
Sa, 22.09. 14:00 20 4 46 260° W
Sa, 22.09. 8:00 9 2 28 230° SW
Sa, 22.09. 2:00 9 2 44 230° SW
Fr, 21.09. 20:00 11 2 40 250° W
Fr, 21.09. 14:00 22 4 68 260° W
Fr, 21.09. 8:00 13 3 30 160° S
Ortszeit Stärke Spitze Richtung
km/h Bft. km/h Grad Sektor
So, 23.09. 4:30 6 1 13 210° SW
So, 23.09. 4:20 6 1 - 210° SW
So, 23.09. 4:10 6 1 - 210° SW
So, 23.09. 4:00 4 1 14 220° SW
So, 23.09. 3:50 4 1 - 220° SW
So, 23.09. 3:40 7 2 - 210° SW
So, 23.09. 3:30 7 2 14 210° SW
So, 23.09. 3:00 4 1 18 220° SW
So, 23.09. 2:30 7 2 18 200° S
So, 23.09. 2:00 7 2 18 200° S
So, 23.09. 1:30 6 1 17 220° SW
Ortszeit Untergrenze Bedeckung Gattung
total tief tief mittel hoch
So, 23.09. 2:00 1080 m 7/8 7/8 - - -
Sa, 22.09. 20:00 1500 m 8/8 5/8 - - -
Sa, 22.09. 14:00 1110 m 8/8 8/8 - - -
Sa, 22.09. 8:00 1230 m 7/8 7/8 - - -
Sa, 22.09. 2:00 6900 m 0/8 0/8 - - -
Fr, 21.09. 20:00 1410 m 4/8 4/8 - - -
Fr, 21.09. 14:00 <30 m 8/8 8/8 - - -
Fr, 21.09. 8:00 6900 m 8/8 6/8 - - -
Ortszeit Bedeckungsgrad in Achtel und Wolkenuntergrenze
So, 23.09. 4:30 1(1500m) 6(1800m) 6(9000m)
So, 23.09. 4:20 1(1500m) 6(1800m) 6(9000m)
So, 23.09. 4:10 1(1500m) 6(1800m) 7(9000m)
So, 23.09. 4:00 1(1350m) 8(1800m) 7(9000m)
So, 23.09. 3:50 1(1350m) 8(1800m)
So, 23.09. 3:40 3(1500m) 7(1800m)
So, 23.09. 3:30 2(1200m) 5(1800m)
So, 23.09. 3:00 1(1800m)
So, 23.09. 2:30 2(1350m) 3(1800m)
So, 23.09. 2:00 1(1080m) 7(1380m) 7(1800m)
So, 23.09. 1:30 7(1800m) 7(1800m)
Ortszeit Luftdruck NN (hPa) Tendenz (hPa in 3 Std.)
So, 23.09. 2:00 1015 0,0
Sa, 22.09. 20:00 1014 - 0,1
Sa, 22.09. 14:00 1014 - 0,4
Sa, 22.09. 8:00 1014 + 2,1
Sa, 22.09. 2:00 1010 + 1,0
Fr, 21.09. 20:00 1006 + 2,0
Fr, 21.09. 14:00 1002 + 2,0
Fr, 21.09. 8:00 1003 - 3,6
Ortszeit Luftdruck NN (hPa) Tendenz (hPa in 3 Std.)
So, 23.09. 4:30 1014 - 0,5
So, 23.09. 4:20 1014 keine Meldung
So, 23.09. 4:10 1014 keine Meldung
So, 23.09. 4:00 1015 - 0,4
So, 23.09. 3:50 1015 keine Meldung
So, 23.09. 3:40 1015 keine Meldung
So, 23.09. 3:30 1015 - 0,4
So, 23.09. 3:00 1015 - 0,3
So, 23.09. 2:30 1015 - 0,2
So, 23.09. 2:00 1015 0,0
So, 23.09. 1:30 1015 0,0
Ortszeit Schneehöhe (cm)
So, 23.09. 2:00 -
Sa, 22.09. 20:00 -
Sa, 22.09. 14:00 -
Sa, 22.09. 8:00 -
Sa, 22.09. 2:00 -
Fr, 21.09. 20:00 -
Fr, 21.09. 14:00 -
Fr, 21.09. 8:00 -
Ortszeit Schneehöhe (cm)
So, 23.09. 4:30 -
So, 23.09. 4:20 -
So, 23.09. 4:10 -
So, 23.09. 4:00 -
So, 23.09. 3:50 -
So, 23.09. 3:40 -
So, 23.09. 3:30 -
So, 23.09. 3:00 -
So, 23.09. 2:30 -
So, 23.09. 2:00 -
So, 23.09. 1:30 -
Link zu dieser Seite / Seite empfehlen

Das Wetter in ...